sensor_id;sensor_type;location;lat;lon;timestamp;pressure;altitude;pressure_sealevel;temperature;humidity
34145;BME280;20422;53.014;8.886;2022-08-19T00:00:27;101253.63;;;17.27;100.00
34145;BME280;20422;53.014;8.886;2022-08-19T00:02:54;101246.66;;;17.34;100.00
34145;BME280;20422;53.014;8.886;2022-08-19T00:05:21;101270.38;;;17.41;100.00
34145;BME280;20422;53.014;8.886;2022-08-19T00:07:48;101261.53;;;17.39;100.00
34145;BME280;20422;53.014;8.886;2022-08-19T00:10:16;101262.72;;;17.46;100.00
34145;BME280;20422;53.014;8.886;2022-08-19T00:12:42;101283.91;;;17.62;100.00
34145;BME280;20422;53.014;8.886;2022-08-19T00:15:11;101268.09;;;17.67;100.00
34145;BME280;20422;53.014;8.886;2022-08-19T00:17:38;101273.00;;;17.73;100.00
34145;BME280;20422;53.014;8.886;2022-08-19T00:20:07;101224.94;;;17.45;100.00
34145;BME280;20422;53.014;8.886;2022-08-19T00:22:33;101273.28;;;17.49;100.00
34145;BME280;20422;53.014;8.886;2022-08-19T00:24:59;101268.72;;;17.50;100.00
34145;BME280;20422;53.014;8.886;2022-08-19T00:27:25;101247.38;;;17.36;100.00
34145;BME280;20422;53.014;8.886;2022-08-19T00:29:52;101275.22;;;17.38;100.00
34145;BME280;20422;53.014;8.886;2022-08-19T00:32:19;101270.06;;;17.35;100.00
34145;BME280;20422;53.014;8.886;2022-08-19T00:34:46;101256.41;;;17.15;100.00
34145;BME280;20422;53.014;8.886;2022-08-19T00:37:12;101255.84;;;17.21;100.00
34145;BME280;20422;53.014;8.886;2022-08-19T00:39:38;101255.25;;;17.18;100.00
34145;BME280;20422;53.014;8.886;2022-08-19T00:42:05;101223.63;;;16.98;100.00
34145;BME280;20422;53.014;8.886;2022-08-19T00:44:31;101254.00;;;17.22;100.00
34145;BME280;20422;53.014;8.886;2022-08-19T00:46:58;101247.88;;;17.20;100.00
34145;BME280;20422;53.014;8.886;2022-08-19T00:49:49;101264.19;;;17.30;100.00
34145;BME280;20422;53.014;8.886;2022-08-19T00:52:26;101261.06;;;17.34;100.00
34145;BME280;20422;53.014;8.886;2022-08-19T00:54:54;101245.88;;;17.22;100.00
34145;BME280;20422;53.014;8.886;2022-08-19T00:57:27;101242.31;;;17.21;100.00
34145;BME280;20422;53.014;8.886;2022-08-19T00:59:55;101193.84;;;16.98;100.00
34145;BME280;20422;53.014;8.886;2022-08-19T01:02:23;101254.59;;;17.46;100.00
34145;BME280;20422;53.014;8.886;2022-08-19T01:04:49;101211.63;;;17.11;100.00
34145;BME280;20422;53.014;8.886;2022-08-19T01:07:15;101236.03;;;17.21;100.00
34145;BME280;20422;53.014;8.886;2022-08-19T01:09:42;101246.66;;;17.34;100.00
34145;BME280;20422;53.014;8.886;2022-08-19T01:12:08;101261.53;;;17.39;100.00
34145;BME280;20422;53.014;8.886;2022-08-19T01:14:37;101221.78;;;17.19;100.00
34145;BME280;20422;53.014;8.886;2022-08-19T01:17:05;101256.25;;;17.38;100.00
34145;BME280;20422;53.014;8.886;2022-08-19T01:19:36;101243.25;;;17.32;100.00
34145;BME280;20422;53.014;8.886;2022-08-19T01:22:08;101239.53;;;17.33;100.00
34145;BME280;20422;53.014;8.886;2022-08-19T01:24:37;101228.69;;;17.33;100.00
34145;BME280;20422;53.014;8.886;2022-08-19T01:27:07;101207.09;;;17.21;100.00
34145;BME280;20422;53.014;8.886;2022-08-19T01:29:33;101228.00;;;17.40;100.00
34145;BME280;20422;53.014;8.886;2022-08-19T01:32:01;101228.16;;;17.39;100.00
34145;BME280;20422;53.014;8.886;2022-08-19T01:34:27;101213.88;;;17.37;100.00
34145;BME280;20422;53.014;8.886;2022-08-19T01:36:53;101192.75;;;17.31;100.00
34145;BME280;20422;53.014;8.886;2022-08-19T01:39:22;101211.91;;;17.39;100.00
34145;BME280;20422;53.014;8.886;2022-08-19T01:41:50;101209.75;;;17.33;100.00
34145;BME280;20422;53.014;8.886;2022-08-19T01:44:17;101199.19;;;17.30;100.00
34145;BME280;20422;53.014;8.886;2022-08-19T01:46:47;101189.91;;;17.32;100.00
34145;BME280;20422;53.014;8.886;2022-08-19T01:49:15;101198.34;;;17.39;100.00
34145;BME280;20422;53.014;8.886;2022-08-19T01:51:41;101190.19;;;17.29;100.00
34145;BME280;20422;53.014;8.886;2022-08-19T01:54:08;101185.28;;;17.23;100.00
34145;BME280;20422;53.014;8.886;2022-08-19T01:56:34;101198.63;;;17.36;100.00
34145;BME280;20422;53.014;8.886;2022-08-19T01:59:05;101201.78;;;17.41;100.00
34145;BME280;20422;53.014;8.886;2022-08-19T02:01:34;101189.63;;;17.35;100.00
34145;BME280;20422;53.014;8.886;2022-08-19T02:04:01;101186.22;;;17.33;100.00
34145;BME280;20422;53.014;8.886;2022-08-19T02:06:28;101184.38;;;17.34;100.00
34145;BME280;20422;53.014;8.886;2022-08-19T02:08:53;101181.38;;;17.37;100.00
34145;BME280;20422;53.014;8.886;2022-08-19T02:11:32;101187.34;;;17.31;100.00
34145;BME280;20422;53.014;8.886;2022-08-19T02:14:05;101162.31;;;17.17;100.00
34145;BME280;20422;53.014;8.886;2022-08-19T02:16:32;101166.16;;;17.15;100.00
34145;BME280;20422;53.014;8.886;2022-08-19T02:18:59;101174.94;;;17.28;100.00
34145;BME280;20422;53.014;8.886;2022-08-19T02:21:29;101182.94;;;17.39;100.00
34145;BME280;20422;53.014;8.886;2022-08-19T02:23:56;101166.97;;;17.36;100.00
34145;BME280;20422;53.014;8.886;2022-08-19T02:26:23;101159.94;;;17.24;100.00
34145;BME280;20422;53.014;8.886;2022-08-19T02:28:51;101128.66;;;17.10;100.00
34145;BME280;20422;53.014;8.886;2022-08-19T02:31:20;101154.06;;;17.19;100.00
34145;BME280;20422;53.014;8.886;2022-08-19T02:33:47;101144.91;;;17.10;100.00
34145;BME280;20422;53.014;8.886;2022-08-19T02:36:14;101130.59;;;16.99;100.00
34145;BME280;20422;53.014;8.886;2022-08-19T02:38:42;101165.75;;;17.19;100.00
34145;BME280;20422;53.014;8.886;2022-08-19T02:41:15;101166.59;;;17.20;100.00
34145;BME280;20422;53.014;8.886;2022-08-19T02:43:42;101163.19;;;17.18;100.00
34145;BME280;20422;53.014;8.886;2022-08-19T02:46:19;101157.59;;;17.10;100.00
34145;BME280;20422;53.014;8.886;2022-08-19T02:48:48;101145.91;;;17.09;100.00
34145;BME280;20422;53.014;8.886;2022-08-19T02:51:23;101149.34;;;17.11;100.00
34145;BME280;20422;53.014;8.886;2022-08-19T02:53:50;101171.66;;;17.25;100.00
34145;BME280;20422;53.014;8.886;2022-08-19T02:56:15;101161.25;;;17.30;100.00
34145;BME280;20422;53.014;8.886;2022-08-19T02:58:41;101156.13;;;17.27;100.00
34145;BME280;20422;53.014;8.886;2022-08-19T03:01:09;101165.13;;;17.37;100.00
34145;BME280;20422;53.014;8.886;2022-08-19T03:03:37;101166.84;;;17.38;100.00
34145;BME280;20422;53.014;8.886;2022-08-19T03:06:10;101155.69;;;17.31;100.00
34145;BME280;20422;53.014;8.886;2022-08-19T03:08:41;101168.09;;;17.34;100.00
34145;BME280;20422;53.014;8.886;2022-08-19T03:11:19;101127.09;;;17.08;100.00
34145;BME280;20422;53.014;8.886;2022-08-19T03:13:46;101163.88;;;17.10;100.00
34145;BME280;20422;53.014;8.886;2022-08-19T03:16:14;101166.72;;;17.09;100.00
34145;BME280;20422;53.014;8.886;2022-08-19T03:18:42;101156.16;;;16.85;100.00
34145;BME280;20422;53.014;8.886;2022-08-19T03:21:07;101197.16;;;17.01;100.00
34145;BME280;20422;53.014;8.886;2022-08-19T03:23:35;101179.16;;;16.90;100.00
34145;BME280;20422;53.014;8.886;2022-08-19T03:26:04;101201.38;;;16.94;100.00
34145;BME280;20422;53.014;8.886;2022-08-19T03:28:32;101190.03;;;16.79;100.00
34145;BME280;20422;53.014;8.886;2022-08-19T03:31:03;101185.03;;;16.75;100.00
34145;BME280;20422;53.014;8.886;2022-08-19T03:33:32;101166.16;;;16.52;100.00
34145;BME280;20422;53.014;8.886;2022-08-19T03:36:08;101195.50;;;16.68;100.00
34145;BME280;20422;53.014;8.886;2022-08-19T03:38:37;101174.69;;;16.69;100.00
34145;BME280;20422;53.014;8.886;2022-08-19T03:41:05;101198.94;;;16.70;100.00
34145;BME280;20422;53.014;8.886;2022-08-19T03:43:34;101202.38;;;16.61;100.00
34145;BME280;20422;53.014;8.886;2022-08-19T03:46:07;101199.72;;;16.50;100.00
34145;BME280;20422;53.014;8.886;2022-08-19T03:48:35;101164.19;;;16.22;100.00
34145;BME280;20422;53.014;8.886;2022-08-19T03:51:02;101190.84;;;16.27;100.00
34145;BME280;20422;53.014;8.886;2022-08-19T03:53:30;101203.31;;;16.18;100.00
34145;BME280;20422;53.014;8.886;2022-08-19T03:55:58;101214.72;;;16.22;100.00
34145;BME280;20422;53.014;8.886;2022-08-19T03:58:29;101169.56;;;15.90;100.00
34145;BME280;20422;53.014;8.886;2022-08-19T04:00:56;101215.47;;;16.13;100.00
34145;BME280;20422;53.014;8.886;2022-08-19T04:03:24;101196.47;;;15.92;100.00
34145;BME280;20422;53.014;8.886;2022-08-19T04:05:51;101207.88;;;15.95;100.00
34145;BME280;20422;53.014;8.886;2022-08-19T04:08:20;101221.66;;;16.04;100.00
34145;BME280;20422;53.014;8.886;2022-08-19T04:10:48;101213.47;;;15.83;100.00
34145;BME280;20422;53.014;8.886;2022-08-19T04:13:17;101200.56;;;15.75;100.00
34145;BME280;20422;53.014;8.886;2022-08-19T04:15:45;101217.88;;;15.73;100.00
34145;BME280;20422;53.014;8.886;2022-08-19T04:18:13;101213.94;;;15.77;100.00
34145;BME280;20422;53.014;8.886;2022-08-19T04:20:43;101191.31;;;15.55;100.00
34145;BME280;20422;53.014;8.886;2022-08-19T04:23:12;101220.56;;;15.84;100.00
34145;BME280;20422;53.014;8.886;2022-08-19T04:25:41;101202.41;;;15.75;100.00
34145;BME280;20422;53.014;8.886;2022-08-19T04:28:10;101210.50;;;15.75;100.00
34145;BME280;20422;53.014;8.886;2022-08-19T04:30:48;101162.84;;;15.40;100.00
34145;BME280;20422;53.014;8.886;2022-08-19T04:33:18;101177.97;;;15.65;100.00
34145;BME280;20422;53.014;8.886;2022-08-19T04:35:48;101200.41;;;15.77;100.00
34145;BME280;20422;53.014;8.886;2022-08-19T04:38:16;101207.44;;;15.68;100.00
34145;BME280;20422;53.014;8.886;2022-08-19T04:40:45;101221.19;;;15.87;100.00
34145;BME280;20422;53.014;8.886;2022-08-19T04:43:31;101213.31;;;15.84;100.00
34145;BME280;20422;53.014;8.886;2022-08-19T04:45:58;101219.09;;;15.91;100.00
34145;BME280;20422;53.014;8.886;2022-08-19T04:48:30;101193.94;;;15.68;100.00
34145;BME280;20422;53.014;8.886;2022-08-19T04:50:57;101199.34;;;15.68;100.00
34145;BME280;20422;53.014;8.886;2022-08-19T04:53:30;101201.31;;;15.66;100.00
34145;BME280;20422;53.014;8.886;2022-08-19T04:55:58;101189.47;;;15.56;100.00
34145;BME280;20422;53.014;8.886;2022-08-19T04:58:26;101231.66;;;15.81;100.00
34145;BME280;20422;53.014;8.886;2022-08-19T05:00:54;101227.44;;;15.77;100.00
34145;BME280;20422;53.014;8.886;2022-08-19T05:03:21;101209.75;;;15.61;100.00
34145;BME280;20422;53.014;8.886;2022-08-19T05:05:48;101225.63;;;15.66;100.00
34145;BME280;20422;53.014;8.886;2022-08-19T05:08:17;101195.13;;;15.53;100.00
34145;BME280;20422;53.014;8.886;2022-08-19T05:10:46;101236.91;;;15.71;100.00
34145;BME280;20422;53.014;8.886;2022-08-19T05:13:12;101223.66;;;15.68;100.00
34145;BME280;20422;53.014;8.886;2022-08-19T05:15:39;101222.69;;;15.69;100.00
34145;BME280;20422;53.014;8.886;2022-08-19T05:18:04;101219.38;;;15.65;100.00
34145;BME280;20422;53.014;8.886;2022-08-19T05:20:49;101235.69;;;15.75;100.00
34145;BME280;20422;53.014;8.886;2022-08-19T05:23:33;101243.41;;;15.80;100.00
34145;BME280;20422;53.014;8.886;2022-08-19T05:26:00;101243.66;;;15.77;100.00
34145;BME280;20422;53.014;8.886;2022-08-19T05:28:26;101241.09;;;15.75;100.00
34145;BME280;20422;53.014;8.886;2022-08-19T05:30:53;101245.03;;;15.82;100.00
34145;BME280;20422;53.014;8.886;2022-08-19T05:33:22;101258.16;;;15.87;100.00
34145;BME280;20422;53.014;8.886;2022-08-19T05:35:49;101248.56;;;15.94;100.00
34145;BME280;20422;53.014;8.886;2022-08-19T05:38:17;101205.09;;;15.86;100.00
34145;BME280;20422;53.014;8.886;2022-08-19T05:40:43;101215.50;;;16.01;100.00
34145;BME280;20422;53.014;8.886;2022-08-19T05:43:13;101195.56;;;16.14;100.00
34145;BME280;20422;53.014;8.886;2022-08-19T05:45:43;101222.22;;;16.50;100.00
34145;BME280;20422;53.014;8.886;2022-08-19T05:48:11;101202.97;;;16.65;100.00
34145;BME280;20422;53.014;8.886;2022-08-19T05:50:40;101220.38;;;17.04;100.00
34145;BME280;20422;53.014;8.886;2022-08-19T05:53:07;101206.88;;;17.34;100.00
34145;BME280;20422;53.014;8.886;2022-08-19T05:55:35;101184.09;;;18.46;100.00
34145;BME280;20422;53.014;8.886;2022-08-19T05:58:04;101210.91;;;20.18;100.00
34145;BME280;20422;53.014;8.886;2022-08-19T06:00:34;101206.31;;;21.94;92.44
34145;BME280;20422;53.014;8.886;2022-08-19T06:03:02;101218.19;;;23.49;85.28
34145;BME280;20422;53.014;8.886;2022-08-19T06:05:30;101208.84;;;24.22;81.69
34145;BME280;20422;53.014;8.886;2022-08-19T06:07:58;101209.38;;;25.17;76.35
34145;BME280;20422;53.014;8.886;2022-08-19T06:10:25;101214.00;;;25.69;74.92
34145;BME280;20422;53.014;8.886;2022-08-19T06:12:53;101183.75;;;25.39;74.04
34145;BME280;20422;53.014;8.886;2022-08-19T06:15:18;101185.25;;;25.27;74.43
34145;BME280;20422;53.014;8.886;2022-08-19T06:17:45;101208.84;;;25.66;74.13
34145;BME280;20422;53.014;8.886;2022-08-19T06:20:13;101217.09;;;26.31;72.85
34145;BME280;20422;53.014;8.886;2022-08-19T06:22:43;101232.09;;;26.86;70.88
34145;BME280;20422;53.014;8.886;2022-08-19T06:25:13;101224.53;;;27.72;67.72
34145;BME280;20422;53.014;8.886;2022-08-19T06:27:40;101210.78;;;27.16;68.85
34145;BME280;20422;53.014;8.886;2022-08-19T06:30:07;101234.50;;;26.74;69.79
34145;BME280;20422;53.014;8.886;2022-08-19T06:32:34;101232.13;;;26.14;71.29
34145;BME280;20422;53.014;8.886;2022-08-19T06:35:01;101237.00;;;26.69;70.33
34145;BME280;20422;53.014;8.886;2022-08-19T06:37:27;101230.09;;;27.23;68.91
34145;BME280;20422;53.014;8.886;2022-08-19T06:39:53;101229.66;;;27.47;68.31
34145;BME280;20422;53.014;8.886;2022-08-19T06:42:18;101239.16;;;27.17;68.74
34145;BME280;20422;53.014;8.886;2022-08-19T06:44:45;101244.66;;;25.87;71.52
34145;BME280;20422;53.014;8.886;2022-08-19T06:47:18;101247.13;;;25.15;73.88
34145;BME280;20422;53.014;8.886;2022-08-19T06:49:45;101242.53;;;25.07;74.23
34145;BME280;20422;53.014;8.886;2022-08-19T06:52:12;101243.16;;;24.71;76.20
34145;BME280;20422;53.014;8.886;2022-08-19T06:54:41;101224.38;;;25.58;74.29
34145;BME280;20422;53.014;8.886;2022-08-19T06:57:08;101212.72;;;25.56;71.81
34145;BME280;20422;53.014;8.886;2022-08-19T06:59:38;101225.69;;;26.22;71.27
34145;BME280;20422;53.014;8.886;2022-08-19T07:02:05;101235.78;;;26.21;71.31
34145;BME280;20422;53.014;8.886;2022-08-19T07:04:34;101243.88;;;26.59;69.92
34145;BME280;20422;53.014;8.886;2022-08-19T07:07:06;101232.38;;;27.13;67.91
34145;BME280;20422;53.014;8.886;2022-08-19T07:09:37;101234.50;;;27.45;66.83
34145;BME280;20422;53.014;8.886;2022-08-19T07:12:07;101212.47;;;28.21;64.90
34145;BME280;20422;53.014;8.886;2022-08-19T07:14:36;101235.38;;;29.35;62.58
34145;BME280;20422;53.014;8.886;2022-08-19T07:17:09;101223.50;;;29.48;60.56
34145;BME280;20422;53.014;8.886;2022-08-19T07:19:37;101238.16;;;29.48;61.40
34145;BME280;20422;53.014;8.886;2022-08-19T07:22:05;101249.09;;;30.46;59.12
34145;BME280;20422;53.014;8.886;2022-08-19T07:24:33;101234.97;;;30.16;58.92
34145;BME280;20422;53.014;8.886;2022-08-19T07:27:02;101194.81;;;29.29;59.72
34145;BME280;20422;53.014;8.886;2022-08-19T07:29:31;101254.91;;;29.54;60.77
34145;BME280;20422;53.014;8.886;2022-08-19T07:32:00;101255.53;;;29.62;60.47
34145;BME280;20422;53.014;8.886;2022-08-19T07:34:29;101261.88;;;29.83;59.75
34145;BME280;20422;53.014;8.886;2022-08-19T07:36:55;101264.47;;;29.44;60.90
34145;BME280;20422;53.014;8.886;2022-08-19T07:39:26;101265.84;;;28.68;61.36
34145;BME280;20422;53.014;8.886;2022-08-19T07:41:53;101253.47;;;27.96;64.20
34145;BME280;20422;53.014;8.886;2022-08-19T07:44:21;101279.06;;;26.48;68.70
34145;BME280;20422;53.014;8.886;2022-08-19T07:46:51;101246.81;;;27.77;66.37
34145;BME280;20422;53.014;8.886;2022-08-19T07:49:19;101281.31;;;28.14;64.18
34145;BME280;20422;53.014;8.886;2022-08-19T07:51:54;101288.50;;;27.46;64.49
34145;BME280;20422;53.014;8.886;2022-08-19T07:54:22;101287.59;;;28.36;64.74
34145;BME280;20422;53.014;8.886;2022-08-19T07:56:49;101282.22;;;28.21;63.91
34145;BME280;20422;53.014;8.886;2022-08-19T07:59:16;101282.84;;;27.82;63.27
34145;BME280;20422;53.014;8.886;2022-08-19T08:01:44;101284.75;;;27.54;62.71
34145;BME280;20422;53.014;8.886;2022-08-19T08:04:10;101281.13;;;26.83;64.67
34145;BME280;20422;53.014;8.886;2022-08-19T08:06:55;101293.69;;;26.92;65.35
34145;BME280;20422;53.014;8.886;2022-08-19T08:09:42;101289.88;;;26.35;66.05
34145;BME280;20422;53.014;8.886;2022-08-19T08:12:25;101286.34;;;27.14;64.98
34145;BME280;20422;53.014;8.886;2022-08-19T08:14:57;101296.41;;;27.56;64.13
34145;BME280;20422;53.014;8.886;2022-08-19T08:17:26;101266.41;;;27.95;61.51
34145;BME280;20422;53.014;8.886;2022-08-19T08:19:53;101256.53;;;27.17;65.74
34145;BME280;20422;53.014;8.886;2022-08-19T08:22:22;101287.31;;;28.24;64.08
34145;BME280;20422;53.014;8.886;2022-08-19T08:25:14;101294.59;;;28.32;63.29
34145;BME280;20422;53.014;8.886;2022-08-19T08:27:41;101298.47;;;28.44;61.90
34145;BME280;20422;53.014;8.886;2022-08-19T08:30:11;101297.50;;;28.85;62.25
34145;BME280;20422;53.014;8.886;2022-08-19T08:32:39;101301.13;;;28.79;62.13
34145;BME280;20422;53.014;8.886;2022-08-19T08:35:08;101295.81;;;28.77;62.23
34145;BME280;20422;53.014;8.886;2022-08-19T08:37:35;101298.31;;;28.59;61.55
34145;BME280;20422;53.014;8.886;2022-08-19T08:40:39;101297.97;;;28.27;62.10
34145;BME280;20422;53.014;8.886;2022-08-19T08:43:18;101295.59;;;27.83;61.86
34145;BME280;20422;53.014;8.886;2022-08-19T08:46:01;101313.38;;;27.59;62.27
34145;BME280;20422;53.014;8.886;2022-08-19T08:48:51;101300.44;;;26.89;64.01
34145;BME280;20422;53.014;8.886;2022-08-19T08:51:27;101284.34;;;26.86;63.57
34145;BME280;20422;53.014;8.886;2022-08-19T08:53:55;101312.25;;;27.26;64.25
34145;BME280;20422;53.014;8.886;2022-08-19T08:56:22;101288.44;;;27.39;62.84
34145;BME280;20422;53.014;8.886;2022-08-19T08:58:59;101318.88;;;27.10;62.96
34145;BME280;20422;53.014;8.886;2022-08-19T09:01:26;101319.59;;;26.97;63.44
34145;BME280;20422;53.014;8.886;2022-08-19T09:03:53;101282.25;;;27.09;63.90
34145;BME280;20422;53.014;8.886;2022-08-19T09:09:22;101310.72;;;26.80;62.60
34145;BME280;20422;53.014;8.886;2022-08-19T09:14:37;101299.06;;;26.57;64.72
34145;BME280;20422;53.014;8.886;2022-08-19T09:17:09;101296.00;;;26.52;65.08
34145;BME280;20422;53.014;8.886;2022-08-19T09:19:49;101294.88;;;26.61;65.16
34145;BME280;20422;53.014;8.886;2022-08-19T09:22:16;101286.91;;;26.52;64.57
34145;BME280;20422;53.014;8.886;2022-08-19T09:24:41;101283.25;;;26.44;66.28
34145;BME280;20422;53.014;8.886;2022-08-19T09:27:08;101288.81;;;26.51;65.02
34145;BME280;20422;53.014;8.886;2022-08-19T09:29:35;101287.84;;;25.93;65.09
34145;BME280;20422;53.014;8.886;2022-08-19T09:32:02;101283.66;;;25.68;66.29
34145;BME280;20422;53.014;8.886;2022-08-19T09:34:28;101290.44;;;25.57;66.37
34145;BME280;20422;53.014;8.886;2022-08-19T09:36:57;101288.69;;;25.04;66.48
34145;BME280;20422;53.014;8.886;2022-08-19T09:39:25;101299.28;;;25.44;66.67
34145;BME280;20422;53.014;8.886;2022-08-19T09:41:52;101257.34;;;25.21;66.00
34145;BME280;20422;53.014;8.886;2022-08-19T09:44:19;101305.00;;;25.57;67.30
34145;BME280;20422;53.014;8.886;2022-08-19T09:46:47;101249.69;;;25.31;66.76
34145;BME280;20422;53.014;8.886;2022-08-19T09:49:15;101306.38;;;25.39;66.28
34145;BME280;20422;53.014;8.886;2022-08-19T09:51:41;101271.69;;;25.60;65.88
34145;BME280;20422;53.014;8.886;2022-08-19T09:54:08;101291.34;;;25.72;67.57
34145;BME280;20422;53.014;8.886;2022-08-19T09:56:33;101289.22;;;26.18;66.19
34145;BME280;20422;53.014;8.886;2022-08-19T09:58:59;101291.22;;;26.39;64.43
34145;BME280;20422;53.014;8.886;2022-08-19T10:01:28;101289.13;;;26.41;65.92
34145;BME280;20422;53.014;8.886;2022-08-19T10:03:58;101282.47;;;26.50;64.67
34145;BME280;20422;53.014;8.886;2022-08-19T10:06:27;101280.97;;;27.05;65.49
34145;BME280;20422;53.014;8.886;2022-08-19T10:08:56;101268.34;;;27.11;66.59
34145;BME280;20422;53.014;8.886;2022-08-19T10:11:22;101245.28;;;27.12;63.86
34145;BME280;20422;53.014;8.886;2022-08-19T10:13:48;101266.88;;;27.15;62.91
34145;BME280;20422;53.014;8.886;2022-08-19T10:16:18;101257.69;;;26.65;62.61
34145;BME280;20422;53.014;8.886;2022-08-19T10:18:46;101265.44;;;26.76;63.44
34145;BME280;20422;53.014;8.886;2022-08-19T10:21:26;101261.38;;;26.94;63.73
34145;BME280;20422;53.014;8.886;2022-08-19T10:23:57;101271.69;;;26.92;62.54
34145;BME280;20422;53.014;8.886;2022-08-19T10:26:28;101276.31;;;27.06;63.05
34145;BME280;20422;53.014;8.886;2022-08-19T10:28:56;101255.72;;;27.23;61.54
34145;BME280;20422;53.014;8.886;2022-08-19T10:31:26;101256.44;;;27.32;60.71
34145;BME280;20422;53.014;8.886;2022-08-19T10:33:53;101219.59;;;27.33;64.66
34145;BME280;20422;53.014;8.886;2022-08-19T10:36:30;101243.16;;;27.14;58.87
34145;BME280;20422;53.014;8.886;2022-08-19T10:39:00;101256.59;;;27.02;61.01
34145;BME280;20422;53.014;8.886;2022-08-19T10:41:32;101239.78;;;27.12;62.50
34145;BME280;20422;53.014;8.886;2022-08-19T10:44:01;101222.28;;;27.26;61.01
34145;BME280;20422;53.014;8.886;2022-08-19T10:46:27;101263.97;;;27.23;58.53
34145;BME280;20422;53.014;8.886;2022-08-19T10:48:54;101229.81;;;27.11;57.67
34145;BME280;20422;53.014;8.886;2022-08-19T10:51:21;101263.34;;;26.78;57.78
34145;BME280;20422;53.014;8.886;2022-08-19T10:54:06;101259.72;;;26.99;58.25
34145;BME280;20422;53.014;8.886;2022-08-19T10:56:33;101260.97;;;26.75;58.67
34145;BME280;20422;53.014;8.886;2022-08-19T10:59:20;101265.09;;;26.65;59.04
34145;BME280;20422;53.014;8.886;2022-08-19T11:01:47;101256.63;;;26.88;58.01
34145;BME280;20422;53.014;8.886;2022-08-19T11:04:15;101261.50;;;27.07;57.09
34145;BME280;20422;53.014;8.886;2022-08-19T11:06:45;101254.88;;;27.23;60.05
34145;BME280;20422;53.014;8.886;2022-08-19T11:09:15;101236.34;;;27.38;59.88
34145;BME280;20422;53.014;8.886;2022-08-19T11:11:42;101247.69;;;27.28;58.99
34145;BME280;20422;53.014;8.886;2022-08-19T11:14:10;101240.66;;;26.98;58.92
34145;BME280;20422;53.014;8.886;2022-08-19T11:16:36;101213.03;;;27.34;59.58
34145;BME280;20422;53.014;8.886;2022-08-19T11:19:07;101245.69;;;27.44;57.53
34145;BME280;20422;53.014;8.886;2022-08-19T11:21:37;101215.81;;;27.34;56.89
34145;BME280;20422;53.014;8.886;2022-08-19T11:24:08;101241.69;;;27.67;59.84
34145;BME280;20422;53.014;8.886;2022-08-19T11:26:36;101240.28;;;27.57;57.28
34145;BME280;20422;53.014;8.886;2022-08-19T11:29:05;101246.66;;;27.85;55.83
34145;BME280;20422;53.014;8.886;2022-08-19T11:31:34;101230.34;;;27.84;55.91
34145;BME280;20422;53.014;8.886;2022-08-19T11:34:02;101233.56;;;28.00;60.47
34145;BME280;20422;53.014;8.886;2022-08-19T11:36:28;101233.00;;;28.12;59.56
34145;BME280;20422;53.014;8.886;2022-08-19T11:38:54;101223.53;;;28.27;56.50
34145;BME280;20422;53.014;8.886;2022-08-19T11:41:21;101224.13;;;27.75;56.17
34145;BME280;20422;53.014;8.886;2022-08-19T11:43:48;101220.09;;;27.78;57.66
34145;BME280;20422;53.014;8.886;2022-08-19T11:46:16;101219.09;;;27.51;56.19
34145;BME280;20422;53.014;8.886;2022-08-19T11:48:42;101227.13;;;27.80;58.02
34145;BME280;20422;53.014;8.886;2022-08-19T11:51:13;101219.66;;;27.67;56.21
34145;BME280;20422;53.014;8.886;2022-08-19T11:53:40;101204.94;;;27.60;59.10
34145;BME280;20422;53.014;8.886;2022-08-19T11:56:08;101211.22;;;27.76;58.38
34145;BME280;20422;53.014;8.886;2022-08-19T11:58:36;101209.59;;;27.94;56.57
34145;BME280;20422;53.014;8.886;2022-08-19T12:01:05;101202.03;;;28.03;56.00
34145;BME280;20422;53.014;8.886;2022-08-19T12:03:33;101194.78;;;27.95;54.43
34145;BME280;20422;53.014;8.886;2022-08-19T12:06:04;101193.91;;;27.88;54.22
34145;BME280;20422;53.014;8.886;2022-08-19T12:08:31;101175.47;;;27.89;55.10
34145;BME280;20422;53.014;8.886;2022-08-19T12:10:57;101195.56;;;27.83;56.75
34145;BME280;20422;53.014;8.886;2022-08-19T12:13:23;101154.50;;;27.88;56.29
34145;BME280;20422;53.014;8.886;2022-08-19T12:15:50;101197.59;;;28.15;55.93
34145;BME280;20422;53.014;8.886;2022-08-19T12:18:17;101159.16;;;27.53;54.62
34145;BME280;20422;53.014;8.886;2022-08-19T12:20:43;101201.41;;;28.08;55.82
34145;BME280;20422;53.014;8.886;2022-08-19T12:23:11;101200.88;;;28.32;55.21
34145;BME280;20422;53.014;8.886;2022-08-19T12:25:44;101192.97;;;28.22;52.76
34145;BME280;20422;53.014;8.886;2022-08-19T12:28:17;101174.56;;;27.82;53.17
34145;BME280;20422;53.014;8.886;2022-08-19T12:30:43;101170.09;;;27.67;53.20
34145;BME280;20422;53.014;8.886;2022-08-19T12:33:10;101208.59;;;28.09;55.12
34145;BME280;20422;53.014;8.886;2022-08-19T12:35:43;101204.00;;;28.22;53.28
34145;BME280;20422;53.014;8.886;2022-08-19T12:38:12;101162.44;;;28.24;55.57
34145;BME280;20422;53.014;8.886;2022-08-19T12:40:39;101156.69;;;28.12;52.38
34145;BME280;20422;53.014;8.886;2022-08-19T12:43:07;101186.91;;;28.40;53.00
34145;BME280;20422;53.014;8.886;2022-08-19T12:45:34;101153.28;;;28.17;53.54
34145;BME280;20422;53.014;8.886;2022-08-19T12:48:00;101162.13;;;27.86;52.50
34145;BME280;20422;53.014;8.886;2022-08-19T12:50:26;101178.97;;;28.24;53.15
34145;BME280;20422;53.014;8.886;2022-08-19T12:52:52;101162.69;;;28.29;52.95
34145;BME280;20422;53.014;8.886;2022-08-19T12:55:19;101181.59;;;28.45;53.56
34145;BME280;20422;53.014;8.886;2022-08-19T12:57:45;101154.13;;;28.04;53.32
34145;BME280;20422;53.014;8.886;2022-08-19T13:00:15;101169.03;;;28.23;54.23